Time;durP1;ratioP1;P1;durP2;ratioP2;P2;SDS_P1;SDS_P2;PMS_P1;PMS_P2;Temp;Humidity;BMP_temperature;BMP_pressure;BME280_temperature;BME280_humidity;BME280_pressure;Samples;Min_cycle;Max_cycle;Signal;HPM_P1;HPM_P2
2022/04/23 00:02:20;;;;;;;;;;;17.00;99.90;;;;;;4860754;29;19960;-75
2022/04/23 00:04:47;;;;;;;;;;;17.10;99.90;;;;;;4860969;29;19917;-76
2022/04/23 00:07:14;;;;;;;;;;;17.20;99.90;;;;;;4861094;29;19912;-79
2022/04/23 00:09:40;;;;;;;;;;;17.30;99.90;;;;;;4844318;29;19998;-78
2022/04/23 00:12:08;;;;;;;;;;;17.30;99.90;;;;;;4860538;29;20019;-77
2022/04/23 00:14:35;;;;;;;;;;;17.30;99.90;;;;;;4860596;29;20332;-76
2022/04/23 00:17:02;;;;;;;;;;;17.50;99.90;;;;;;4860196;29;19916;-76
2022/04/23 00:19:28;;;;;;;;;;;17.60;99.90;;;;;;4860620;29;19912;-76
2022/04/23 00:21:55;;;;;;;;;;;17.70;99.90;;;;;;4860452;29;19912;-77
2022/04/23 00:24:22;;;;;;;;;;;17.80;99.90;;;;;;4860495;29;20331;-76
2022/04/23 00:26:48;;;;;;;;;;;18.00;99.90;;;;;;4860566;29;19912;-75
2022/04/23 00:29:17;;;;;;;;;;;18.20;99.90;;;;;;4860534;29;19963;-76
2022/04/23 00:31:43;;;;;;;;;;;18.20;99.90;;;;;;4860380;29;19916;-76
2022/04/23 00:34:11;;;;;;;;;;;18.30;99.90;;;;;;4859900;29;19940;-76
2022/04/23 00:36:38;;;;;;;;;;;18.40;99.90;;;;;;4860286;29;19955;-77
2022/04/23 00:39:05;;;;;;;;;;;18.50;99.90;;;;;;4860562;29;19912;-77
2022/04/23 00:41:46;;;;;;;;;;;18.60;99.90;;;;;;4860177;29;19924;-79
2022/04/23 00:44:13;;;;;;;;;;;18.70;99.90;;;;;;4860641;29;19912;-78
2022/04/23 00:46:39;;;;;;;;;;;18.80;99.90;;;;;;4869871;29;20257;-79
2022/04/23 00:49:06;;;;;;;;;;;18.80;99.90;;;;;;4879360;29;20360;-78
2022/04/23 00:51:33;;;;;;;;;;;18.80;99.90;;;;;;4879479;29;19911;-78
2022/04/23 00:54:01;;;;;;;;;;;18.70;99.90;;;;;;4879720;29;20275;-80
2022/04/23 00:56:28;;;;;;;;;;;18.80;99.90;;;;;;4879665;29;19955;-78
2022/04/23 00:58:55;;;;;;;;;;;18.80;99.90;;;;;;4879589;29;20348;-79
2022/04/23 01:01:23;;;;;;;;;;;18.80;99.90;;;;;;4879298;29;20344;-79
2022/04/23 01:03:51;;;;;;;;;;;18.90;99.90;;;;;;4879153;29;20360;-79
2022/04/23 01:06:18;;;;;;;;;;;19.00;99.90;;;;;;4879506;29;19959;-79
2022/04/23 01:08:46;;;;;;;;;;;19.10;99.90;;;;;;4878401;29;19926;-79
2022/04/23 01:11:13;;;;;;;;;;;19.30;99.90;;;;;;4879396;29;19911;-79
2022/04/23 01:13:43;;;;;;;;;;;19.50;99.90;;;;;;4879203;29;20316;-79
2022/04/23 01:16:09;;;;;;;;;;;19.70;99.90;;;;;;4879261;29;19912;-78
2022/04/23 01:18:40;;;;;;;;;;;19.80;99.90;;;;;;4879476;29;20011;-78
2022/04/23 01:21:09;;;;;;;;;;;19.70;99.90;;;;;;4879456;29;19912;-79
2022/04/23 01:23:36;;;;;;;;;;;19.80;99.90;;;;;;4879324;29;19918;-78
2022/04/23 01:26:03;;;;;;;;;;;19.70;99.90;;;;;;4879410;29;19918;-78
2022/04/23 01:28:31;;;;;;;;;;;19.70;99.90;;;;;;4879331;29;20006;-78
2022/04/23 01:30:57;;;;;;;;;;;19.70;99.90;;;;;;4878840;29;19923;-77
2022/04/23 01:33:24;;;;;;;;;;;20.00;99.90;;;;;;4879158;29;20374;-78
2022/04/23 01:35:51;;;;;;;;;;;20.10;99.90;;;;;;4879064;29;19913;-78
2022/04/23 01:38:17;;;;;;;;;;;20.00;99.90;;;;;;4879182;29;19955;-77
2022/04/23 01:40:44;;;;;;;;;;;19.90;99.90;;;;;;4879030;29;19973;-78
2022/04/23 01:43:11;;;;;;;;;;;19.90;99.90;;;;;;4879230;29;19912;-78
2022/04/23 01:45:38;;;;;;;;;;;19.80;99.90;;;;;;4881472;29;19979;-78
2022/04/23 01:48:05;;;;;;;;;;;19.70;99.90;;;;;;4865953;29;19923;-77
2022/04/23 01:50:32;;;;;;;;;;;19.60;99.90;;;;;;4882858;29;19982;-77
2022/04/23 01:52:59;;;;;;;;;;;19.60;99.90;;;;;;4882511;29;19912;-77
2022/04/23 01:55:26;;;;;;;;;;;19.50;99.90;;;;;;4882541;29;20007;-78
2022/04/23 01:57:52;;;;;;;;;;;19.40;99.90;;;;;;4882454;29;19928;-77
2022/04/23 02:00:19;;;;;;;;;;;19.40;99.90;;;;;;4881758;29;20266;-77
2022/04/23 02:02:46;;;;;;;;;;;19.30;99.90;;;;;;4882029;29;19923;-77
2022/04/23 02:05:13;;;;;;;;;;;19.30;99.90;;;;;;4882592;29;19959;-77
2022/04/23 02:07:41;;;;;;;;;;;19.30;99.90;;;;;;4881771;29;19919;-77
2022/04/23 02:10:09;;;;;;;;;;;19.20;99.90;;;;;;4882246;29;19959;-77
2022/04/23 02:12:39;;;;;;;;;;;19.20;99.90;;;;;;4881688;29;19922;-77
2022/04/23 02:15:12;;;;;;;;;;;19.30;99.90;;;;;;4881155;29;19966;-77
2022/04/23 02:17:40;;;;;;;;;;;19.20;99.90;;;;;;4881512;29;19915;-77
2022/04/23 02:20:14;;;;;;;;;;;19.20;99.90;;;;;;4882013;29;20283;-77
2022/04/23 02:22:41;;;;;;;;;;;19.20;99.90;;;;;;4875153;29;19918;-76
2022/04/23 02:25:08;;;;;;;;;;;19.20;99.90;;;;;;4863897;29;19965;-77
2022/04/23 02:27:42;;;;;;;;;;;19.30;99.90;;;;;;4862554;29;19919;-78
2022/04/23 02:30:09;;;;;;;;;;;19.30;99.90;;;;;;4862497;29;19921;-77
2022/04/23 02:32:36;;;;;;;;;;;19.40;99.90;;;;;;4862606;29;19919;-78
2022/04/23 02:35:04;;;;;;;;;;;19.40;99.90;;;;;;4862489;29;20003;-77
2022/04/23 02:37:34;;;;;;;;;;;19.60;99.90;;;;;;4862170;29;19919;-77
2022/04/23 02:40:04;;;;;;;;;;;19.70;99.90;;;;;;4862455;29;19998;-77
2022/04/23 02:42:31;;;;;;;;;;;19.60;99.90;;;;;;4862297;29;19920;-77
2022/04/23 02:45:03;;;;;;;;;;;19.60;99.90;;;;;;4862385;29;19919;-77
2022/04/23 02:47:50;;;;;;;;;;;19.50;99.90;;;;;;4862474;29;19958;-77
2022/04/23 02:50:26;;;;;;;;;;;19.60;99.90;;;;;;4862236;29;19920;-78
2022/04/23 02:52:55;;;;;;;;;;;19.70;99.90;;;;;;4862533;29;19988;-77
2022/04/23 02:55:25;;;;;;;;;;;19.80;99.90;;;;;;4861994;29;19923;-77
2022/04/23 02:57:52;;;;;;;;;;;19.90;99.90;;;;;;4861334;29;19953;-77
2022/04/23 03:00:19;;;;;;;;;;;19.90;99.90;;;;;;4861967;29;19912;-78
2022/04/23 03:02:47;;;;;;;;;;;19.80;99.90;;;;;;4861740;29;19923;-78
2022/04/23 03:05:17;;;;;;;;;;;19.70;99.90;;;;;;4862089;29;19912;-78
2022/04/23 03:07:45;;;;;;;;;;;19.70;99.90;;;;;;4861788;29;20272;-77
2022/04/23 03:10:13;;;;;;;;;;;19.70;99.90;;;;;;4861862;29;20351;-78
2022/04/23 03:12:40;;;;;;;;;;;19.60;99.90;;;;;;4861711;29;20011;-77
2022/04/23 03:15:07;;;;;;;;;;;19.60;99.90;;;;;;4861717;29;19941;-77
2022/04/23 03:17:34;;;;;;;;;;;19.50;99.90;;;;;;4861883;29;20320;-77
2022/04/23 03:20:01;;;;;;;;;;;19.70;99.90;;;;;;4861807;29;19919;-77
2022/04/23 03:22:27;;;;;;;;;;;19.70;99.90;;;;;;4861714;29;20848;-77
2022/04/23 03:24:54;;;;;;;;;;;19.80;99.90;;;;;;4861473;29;19999;-77
2022/04/23 03:27:21;;;;;;;;;;;19.80;99.90;;;;;;4861472;29;19992;-77
2022/04/23 03:29:47;;;;;;;;;;;19.90;99.90;;;;;;4861265;29;19924;-78
2022/04/23 03:32:14;;;;;;;;;;;19.90;99.90;;;;;;4861645;29;19941;-78
2022/04/23 03:34:41;;;;;;;;;;;20.10;99.90;;;;;;4861503;29;19913;-77
2022/04/23 03:37:07;;;;;;;;;;;20.20;99.90;;;;;;4861410;29;19918;-77
2022/04/23 03:39:34;;;;;;;;;;;20.20;99.90;;;;;;4861032;29;19920;-77
2022/04/23 03:42:04;;;;;;;;;;;20.20;99.90;;;;;;4861332;29;19916;-77
2022/04/23 03:44:31;;;;;;;;;;;20.10;99.90;;;;;;4867044;29;19912;-77
2022/04/23 03:46:59;;;;;;;;;;;20.00;99.90;;;;;;4880440;29;19912;-77
2022/04/23 03:49:26;;;;;;;;;;;19.90;99.90;;;;;;4880625;29;20321;-78
2022/04/23 03:51:53;;;;;;;;;;;19.90;99.90;;;;;;4880256;29;19920;-78
2022/04/23 03:54:19;;;;;;;;;;;19.80;99.90;;;;;;4880492;29;19912;-77
2022/04/23 03:56:46;;;;;;;;;;;19.90;99.90;;;;;;4880305;29;20009;-77
2022/04/23 03:59:14;;;;;;;;;;;19.90;99.90;;;;;;4880287;29;19912;-77
2022/04/23 04:01:41;;;;;;;;;;;19.90;99.90;;;;;;4879993;29;19934;-77
2022/04/23 04:04:08;;;;;;;;;;;20.00;99.90;;;;;;4880281;29;19924;-77
2022/04/23 04:06:35;;;;;;;;;;;19.90;99.90;;;;;;4880428;29;20291;-77
2022/04/23 04:09:01;;;;;;;;;;;19.90;99.90;;;;;;4879142;29;19934;-77
2022/04/23 04:12:01;;;;;;;;;;;20.00;99.90;;;;;;4880177;29;20002;-77
2022/04/23 04:14:14;;;;;;;;;;;20.00;99.90;;;;;;4879823;29;19912;-77
2022/04/23 04:16:45;;;;;;;;;;;20.00;99.90;;;;;;4879987;29;20011;-78
2022/04/23 04:19:15;;;;;;;;;;;20.00;99.90;;;;;;4880040;29;19916;-77
2022/04/23 04:21:43;;;;;;;;;;;20.00;99.90;;;;;;4878934;29;20015;-77
2022/04/23 04:24:13;;;;;;;;;;;19.90;99.90;;;;;;4879732;29;19919;-77
2022/04/23 04:26:43;;;;;;;;;;;20.00;99.90;;;;;;4879668;29;19912;-77
2022/04/23 04:29:11;;;;;;;;;;;19.90;99.90;;;;;;4879437;29;20403;-77
2022/04/23 04:31:50;;;;;;;;;;;19.90;99.90;;;;;;4862610;29;19920;-77
2022/04/23 04:34:20;;;;;;;;;;;19.90;99.90;;;;;;4879579;29;19968;-77
2022/04/23 04:36:48;;;;;;;;;;;19.90;99.90;;;;;;4879819;29;20019;-77
2022/04/23 04:39:15;;;;;;;;;;;20.20;99.90;;;;;;4879796;29;19919;-77
2022/04/23 04:41:42;;;;;;;;;;;20.20;99.90;;;;;;4879631;29;19916;-78
2022/04/23 04:44:09;;;;;;;;;;;20.20;99.90;;;;;;4879324;29;19912;-77
2022/04/23 04:46:37;;;;;;;;;;;20.10;99.90;;;;;;4879505;29;20364;-78
2022/04/23 04:49:05;;;;;;;;;;;20.00;99.90;;;;;;4879489;29;19927;-75
2022/04/23 04:51:31;;;;;;;;;;;20.00;99.90;;;;;;4879436;29;19912;-75
2022/04/23 04:53:58;;;;;;;;;;;19.90;99.90;;;;;;4879438;29;19916;-75
2022/04/23 04:56:25;;;;;;;;;;;19.70;99.90;;;;;;4879486;29;20019;-76
2022/04/23 04:58:51;;;;;;;;;;;19.70;99.90;;;;;;4879258;29;19923;-76
2022/04/23 05:01:18;;;;;;;;;;;19.50;99.90;;;;;;4879445;29;20325;-77
2022/04/23 05:03:45;;;;;;;;;;;19.40;99.90;;;;;;4879058;29;19971;-77
2022/04/23 05:06:12;;;;;;;;;;;19.40;99.90;;;;;;4879270;29;19915;-76
2022/04/23 05:08:38;;;;;;;;;;;19.20;99.90;;;;;;4879409;29;19920;-77
2022/04/23 05:11:05;;;;;;;;;;;19.20;99.90;;;;;;4879275;29;19918;-76
2022/04/23 05:13:33;;;;;;;;;;;19.20;99.90;;;;;;4878943;29;19940;-77
2022/04/23 05:16:00;;;;;;;;;;;19.10;99.90;;;;;;4879304;29;19912;-77
2022/04/23 05:18:27;;;;;;;;;;;19.20;99.90;;;;;;4879220;29;19912;-77
2022/04/23 05:20:53;;;;;;;;;;;19.30;99.90;;;;;;4882421;29;19934;-76
2022/04/23 05:23:20;;;;;;;;;;;19.40;99.90;;;;;;4883196;29;19918;-77
2022/04/23 05:25:46;;;;;;;;;;;19.50;99.90;;;;;;4883072;29;19911;-77
2022/04/23 05:28:13;;;;;;;;;;;19.50;99.90;;;;;;4882764;29;20045;-76
2022/04/23 05:30:40;;;;;;;;;;;19.50;99.90;;;;;;4882805;29;19963;-77
2022/04/23 05:33:07;;;;;;;;;;;19.50;99.90;;;;;;4883046;29;19951;-77
2022/04/23 05:35:33;;;;;;;;;;;19.50;99.90;;;;;;4882658;29;19999;-77
2022/04/23 05:38:00;;;;;;;;;;;19.50;99.90;;;;;;4882865;29;19912;-77
2022/04/23 05:40:27;;;;;;;;;;;19.50;99.90;;;;;;4882942;29;19954;-77
2022/04/23 05:42:59;;;;;;;;;;;19.40;99.90;;;;;;4882606;29;19912;-77
2022/04/23 05:45:26;;;;;;;;;;;19.50;99.90;;;;;;4882635;29;19912;-77
2022/04/23 05:47:53;;;;;;;;;;;19.60;99.90;;;;;;4882374;29;19912;-77
2022/04/23 05:50:20;;;;;;;;;;;19.60;99.90;;;;;;4882650;29;19912;-77
2022/04/23 05:52:46;;;;;;;;;;;19.40;99.90;;;;;;4882539;29;19994;-77
2022/04/23 05:55:13;;;;;;;;;;;19.40;99.90;;;;;;4882639;29;19912;-77
2022/04/23 05:57:40;;;;;;;;;;;19.30;99.90;;;;;;4875422;29;20343;-77
2022/04/23 06:00:08;;;;;;;;;;;19.30;99.90;;;;;;4864524;29;19920;-76
2022/04/23 06:02:35;;;;;;;;;;;19.40;99.90;;;;;;4863063;29;20002;-77
2022/04/23 06:05:03;;;;;;;;;;;19.40;99.90;;;;;;4863204;29;19927;-76
2022/04/23 06:07:29;;;;;;;;;;;19.30;99.90;;;;;;4863056;29;19912;-76
2022/04/23 06:09:56;;;;;;;;;;;19.20;99.90;;;;;;4868215;29;19967;-76
2022/04/23 06:12:22;;;;;;;;;;;19.20;99.90;;;;;;4882319;29;20052;-76
2022/04/23 06:14:49;;;;;;;;;;;19.20;99.90;;;;;;4882180;29;20387;-76
2022/04/23 06:17:17;;;;;;;;;;;19.20;99.90;;;;;;4882266;29;20356;-77
2022/04/23 06:19:43;;;;;;;;;;;19.10;99.90;;;;;;4882144;29;19918;-75
2022/04/23 06:22:10;;;;;;;;;;;19.20;99.90;;;;;;4882072;29;19912;-75
2022/04/23 06:24:37;;;;;;;;;;;19.10;99.90;;;;;;4881970;29;19911;-75
2022/04/23 06:27:03;;;;;;;;;;;19.10;99.90;;;;;;4881901;29;19940;-76
2022/04/23 06:29:30;;;;;;;;;;;19.10;99.90;;;;;;4881634;29;20039;-76
2022/04/23 06:31:57;;;;;;;;;;;19.10;99.90;;;;;;4864042;29;20023;-76
2022/04/23 06:34:24;;;;;;;;;;;19.10;99.90;;;;;;4881974;29;19912;-76
2022/04/23 06:36:50;;;;;;;;;;;19.00;99.90;;;;;;4881875;29;20321;-76
2022/04/23 06:39:17;;;;;;;;;;;19.00;99.90;;;;;;4881924;29;19940;-77
2022/04/23 06:41:43;;;;;;;;;;;18.90;99.90;;;;;;4881810;29;19912;-77
2022/04/23 06:44:10;;;;;;;;;;;18.90;99.90;;;;;;4882041;29;20333;-76
2022/04/23 06:46:37;;;;;;;;;;;18.90;99.90;;;;;;4881607;29;19912;-77
2022/04/23 06:49:05;;;;;;;;;;;18.80;99.90;;;;;;4881709;29;20381;-75
2022/04/23 06:51:32;;;;;;;;;;;18.80;99.90;;;;;;4881333;29;19916;-76
2022/04/23 06:53:59;;;;;;;;;;;18.80;99.90;;;;;;4881828;29;19954;-76
2022/04/23 06:56:26;;;;;;;;;;;18.80;99.90;;;;;;4881490;29;20006;-76
2022/04/23 06:58:52;;;;;;;;;;;18.80;99.90;;;;;;4881141;29;19912;-76
2022/04/23 07:01:19;;;;;;;;;;;18.70;99.90;;;;;;4881442;29;19923;-76
2022/04/23 07:03:49;;;;;;;;;;;18.70;99.90;;;;;;4881046;29;19944;-76
2022/04/23 07:06:19;;;;;;;;;;;18.70;99.90;;;;;;4881333;29;19920;-77
2022/04/23 07:08:46;;;;;;;;;;;18.70;99.90;;;;;;4881344;29;20019;-78
2022/04/23 07:11:12;;;;;;;;;;;18.70;99.90;;;;;;4881320;29;19912;-77
2022/04/23 07:13:39;;;;;;;;;;;18.70;99.90;;;;;;4880842;29;20424;-78
2022/04/23 07:16:07;;;;;;;;;;;18.70;99.90;;;;;;4881263;29;19912;-78
2022/04/23 07:18:35;;;;;;;;;;;18.70;99.90;;;;;;4881068;29;19918;-78
2022/04/23 07:21:01;;;;;;;;;;;18.60;99.90;;;;;;4881080;29;20332;-77
2022/04/23 07:26:12;;;;;;;;;;;18.60;99.90;;;;;;4881401;29;19934;-77
2022/04/23 07:28:39;;;;;;;;;;;18.60;99.90;;;;;;4880728;29;19920;-76
2022/04/23 07:31:06;;;;;;;;;;;18.50;99.90;;;;;;4880826;29;19911;-77
2022/04/23 07:39:02;;;;;;;;;;;18.50;99.90;;;;;;4881127;29;19950;-76
2022/04/23 07:41:28;;;;;;;;;;;18.40;99.90;;;;;;4880459;29;19934;-77
2022/04/23 07:43:57;;;;;;;;;;;18.40;99.90;;;;;;4880488;29;19980;-78
2022/04/23 07:46:24;;;;;;;;;;;18.40;99.90;;;;;;4880651;29;19916;-77
2022/04/23 07:48:51;;;;;;;;;;;18.40;99.90;;;;;;4880616;29;20344;-77
2022/04/23 07:51:18;;;;;;;;;;;18.40;99.90;;;;;;4880512;29;20356;-77
2022/04/23 07:53:45;;;;;;;;;;;18.40;99.90;;;;;;4880297;29;19912;-77
2022/04/23 07:56:11;;;;;;;;;;;18.40;99.90;;;;;;4880590;29;20002;-77
2022/04/23 07:58:38;;;;;;;;;;;18.30;99.90;;;;;;4880242;29;20364;-77
2022/04/23 08:01:05;;;;;;;;;;;18.20;99.90;;;;;;4880247;29;20364;-77
2022/04/23 08:03:31;;;;;;;;;;;18.20;99.90;;;;;;4879962;29;19987;-76
2022/04/23 08:05:59;;;;;;;;;;;18.10;99.90;;;;;;4880156;29;20015;-76
2022/04/23 08:08:26;;;;;;;;;;;18.10;99.90;;;;;;4879906;29;19927;-77
2022/04/23 08:10:53;;;;;;;;;;;18.20;99.90;;;;;;4880115;29;19919;-78
2022/04/23 08:13:20;;;;;;;;;;;18.10;99.90;;;;;;4879897;29;19954;-76
2022/04/23 08:15:47;;;;;;;;;;;18.10;99.90;;;;;;4879874;29;19967;-76
2022/04/23 08:18:13;;;;;;;;;;;18.00;99.90;;;;;;4880121;29;19955;-78
2022/04/23 08:20:43;;;;;;;;;;;17.90;99.90;;;;;;4880068;29;19923;-77
2022/04/23 08:23:10;;;;;;;;;;;17.90;99.90;;;;;;4880165;29;20272;-76
2022/04/23 08:25:37;;;;;;;;;;;17.90;99.90;;;;;;4879988;29;19912;-77
2022/04/23 08:30:48;;;;;;;;;;;17.90;99.90;;;;;;4880461;29;19922;-76
2022/04/23 08:33:15;;;;;;;;;;;17.90;99.90;;;;;;4880014;29;19916;-77
2022/04/23 08:35:41;;;;;;;;;;;17.90;99.90;;;;;;4879723;29;20517;-77
2022/04/23 08:38:09;;;;;;;;;;;17.90;99.90;;;;;;4879865;29;19912;-77
2022/04/23 08:40:36;;;;;;;;;;;17.90;99.90;;;;;;4880077;29;19911;-77
2022/04/23 08:43:03;;;;;;;;;;;17.90;99.90;;;;;;4879725;29;19919;-76
2022/04/23 08:45:33;;;;;;;;;;;17.90;99.90;;;;;;4879738;29;19928;-77
2022/04/23 08:48:00;;;;;;;;;;;17.80;99.90;;;;;;4879858;29;19916;-77
2022/04/23 08:50:27;;;;;;;;;;;17.80;99.90;;;;;;4879809;29;19922;-77
2022/04/23 08:52:54;;;;;;;;;;;17.70;99.90;;;;;;4879817;29;20356;-77
2022/04/23 08:55:21;;;;;;;;;;;17.70;99.90;;;;;;4879026;29;20331;-77
2022/04/23 08:57:48;;;;;;;;;;;17.70;99.90;;;;;;4878246;29;20279;-77
2022/04/23 09:00:15;;;;;;;;;;;17.60;99.90;;;;;;4879714;29;19916;-77
2022/04/23 09:02:43;;;;;;;;;;;17.60;99.90;;;;;;4879199;29;20307;-78
2022/04/23 09:05:13;;;;;;;;;;;17.60;99.90;;;;;;4879326;29;20006;-77
2022/04/23 09:07:40;;;;;;;;;;;17.60;99.90;;;;;;4879393;29;19919;-76
2022/04/23 09:10:07;;;;;;;;;;;17.60;99.90;;;;;;4879610;29;19927;-77
2022/04/23 09:12:52;;;;;;;;;;;17.70;99.90;;;;;;4879492;29;19923;-77
2022/04/23 09:23:39;;;;;;;;;;;17.60;99.90;;;;;;4879184;29;19919;-77
2022/04/23 09:26:16;;;;;;;;;;;17.60;99.90;;;;;;4879335;29;19919;-77
2022/04/23 09:28:47;;;;;;;;;;;17.60;99.90;;;;;;4879272;29;19916;-77
2022/04/23 09:31:15;;;;;;;;;;;17.60;99.90;;;;;;4879459;29;20003;-77
2022/04/23 09:33:43;;;;;;;;;;;17.60;99.90;;;;;;4862430;29;19920;-77
2022/04/23 09:36:10;;;;;;;;;;;17.60;99.90;;;;;;4879186;29;19911;-77
2022/04/23 09:38:37;;;;;;;;;;;17.60;99.90;;;;;;4879303;29;19918;-77
2022/04/23 09:41:25;;;;;;;;;;;17.60;99.90;;;;;;4879469;29;19916;-77
2022/04/23 09:44:05;;;;;;;;;;;17.50;99.90;;;;;;4878375;29;19915;-77
2022/04/23 09:46:46;;;;;;;;;;;17.50;99.90;;;;;;4879237;29;19916;-77
2022/04/23 09:49:19;;;;;;;;;;;17.50;99.90;;;;;;4879255;29;19963;-78
2022/04/23 09:51:59;;;;;;;;;;;17.50;99.90;;;;;;4879097;29;19912;-77
2022/04/23 09:54:27;;;;;;;;;;;17.50;99.90;;;;;;4879220;29;19919;-77
2022/04/23 09:56:54;;;;;;;;;;;17.50;99.90;;;;;;4879159;29;19911;-78
2022/04/23 09:59:21;;;;;;;;;;;17.50;99.90;;;;;;4879230;29;19916;-77
2022/04/23 10:01:48;;;;;;;;;;;17.50;99.90;;;;;;4879018;29;19916;-77
2022/04/23 10:04:17;;;;;;;;;;;17.50;99.90;;;;;;4878942;29;20439;-77
2022/04/23 10:06:45;;;;;;;;;;;17.50;99.90;;;;;;4880340;29;19919;-77
2022/04/23 10:09:12;;;;;;;;;;;17.40;99.90;;;;;;4882491;29;19920;-77
2022/04/23 10:11:42;;;;;;;;;;;17.40;99.90;;;;;;4882195;29;20348;-77
2022/04/23 10:14:13;;;;;;;;;;;17.40;99.90;;;;;;4882201;29;19935;-77
2022/04/23 10:16:40;;;;;;;;;;;17.40;99.90;;;;;;4882547;29;20367;-77
2022/04/23 10:19:08;;;;;;;;;;;17.40;99.90;;;;;;4882408;29;19912;-77
2022/04/23 10:21:35;;;;;;;;;;;17.40;99.90;;;;;;4882135;29;19911;-76
2022/04/23 10:24:07;;;;;;;;;;;17.40;99.90;;;;;;4882040;29;20323;-76
2022/04/23 10:26:46;;;;;;;;;;;17.50;99.90;;;;;;4863188;29;19913;-77
2022/04/23 10:29:16;;;;;;;;;;;17.40;99.90;;;;;;4863376;29;19928;-76
2022/04/23 10:31:43;;;;;;;;;;;17.40;99.90;;;;;;4861768;29;20387;-76
2022/04/23 10:34:39;;;;;;;;;;;17.50;99.90;;;;;;4861422;29;19923;-77
2022/04/23 10:37:18;;;;;;;;;;;17.50;99.90;;;;;;4857173;29;19999;-77
2022/04/23 10:40:05;;;;;;;;;;;17.60;99.90;;;;;;4866429;29;20364;-77
2022/04/23 10:42:32;;;;;;;;;;;17.70;99.90;;;;;;4847963;29;19918;-79
2022/04/23 10:45:05;;;;;;;;;;;17.70;99.90;;;;;;4860685;29;20233;-79
2022/04/23 10:47:34;;;;;;;;;;;17.50;99.90;;;;;;4860534;29;19919;-77
2022/04/23 10:50:18;;;;;;;;;;;17.40;99.90;;;;;;4860338;29;19924;-78
2022/04/23 10:52:45;;;;;;;;;;;17.20;99.90;;;;;;4860315;29;20015;-77
2022/04/23 10:55:12;;;;;;;;;;;17.10;99.90;;;;;;4859982;29;19916;-77
2022/04/23 10:57:39;;;;;;;;;;;17.00;99.90;;;;;;4860219;29;19916;-77
2022/04/23 11:00:13;;;;;;;;;;;17.00;99.90;;;;;;4860234;29;19912;-79
2022/04/23 11:02:40;;;;;;;;;;;16.90;99.90;;;;;;4843519;29;19936;-76
2022/04/23 11:13:49;;;;;;;;;;;16.60;99.90;;;;;;4860282;29;19927;-76
2022/04/23 11:16:17;;;;;;;;;;;16.60;99.90;;;;;;4860533;29;19927;-76
2022/04/23 11:18:45;;;;;;;;;;;16.70;99.90;;;;;;4859244;29;19944;-78
2022/04/23 11:21:12;;;;;;;;;;;16.70;99.90;;;;;;4859712;29;20296;-75
2022/04/23 11:23:48;;;;;;;;;;;16.70;99.90;;;;;;4859797;29;19912;-76
2022/04/23 11:26:15;;;;;;;;;;;16.60;99.90;;;;;;4859538;29;19959;-77
2022/04/23 11:28:42;;;;;;;;;;;16.70;99.90;;;;;;4859380;29;19920;-79
2022/04/23 11:31:12;;;;;;;;;;;16.60;99.90;;;;;;4859377;29;19916;-77
2022/04/23 11:33:49;;;;;;;;;;;16.60;99.90;;;;;;4859633;29;20042;-77
2022/04/23 11:36:16;;;;;;;;;;;16.60;99.90;;;;;;4859681;29;19923;-77
2022/04/23 11:38:42;;;;;;;;;;;16.50;99.90;;;;;;4842449;29;20372;-77
2022/04/23 11:41:09;;;;;;;;;;;16.50;99.90;;;;;;4859424;29;19919;-77
2022/04/23 11:43:38;;;;;;;;;;;16.40;99.90;;;;;;4858903;29;20027;-77
2022/04/23 11:46:06;;;;;;;;;;;16.40;99.90;;;;;;4859623;29;19919;-76
2022/04/23 11:48:42;;;;;;;;;;;16.40;99.90;;;;;;4859446;29;19931;-77
2022/04/23 11:51:12;;;;;;;;;;;16.40;99.90;;;;;;4859572;29;19916;-81
2022/04/23 11:53:49;;;;;;;;;;;16.40;99.90;;;;;;4858489;29;19916;-80
2022/04/23 11:56:22;;;;;;;;;;;16.50;99.90;;;;;;4859512;29;19964;-78
2022/04/23 11:58:51;;;;;;;;;;;16.50;99.90;;;;;;4858957;29;19916;-80
2022/04/23 12:01:19;;;;;;;;;;;16.40;99.90;;;;;;4859205;29;20235;-78
2022/04/23 12:03:52;;;;;;;;;;;16.40;99.90;;;;;;4858805;29;19947;-79
2022/04/23 12:06:18;;;;;;;;;;;16.40;99.90;;;;;;4859281;29;20056;-79
2022/04/23 12:08:45;;;;;;;;;;;16.40;99.90;;;;;;4858518;29;19920;-78
2022/04/23 12:11:28;;;;;;;;;;;16.40;99.90;;;;;;4858465;29;19923;-78
2022/04/23 12:13:54;;;;;;;;;;;16.50;99.90;;;;;;4859010;29;19939;-78
2022/04/23 12:16:33;;;;;;;;;;;16.40;99.90;;;;;;4858932;29;19916;-78
2022/04/23 12:19:01;;;;;;;;;;;16.40;99.90;;;;;;4859131;29;19944;-78
2022/04/23 12:21:29;;;;;;;;;;;16.40;99.90;;;;;;4859174;29;20219;-76
2022/04/23 12:23:55;;;;;;;;;;;16.50;99.90;;;;;;4858042;29;20416;-76
2022/04/23 12:26:23;;;;;;;;;;;16.50;99.90;;;;;;4858624;29;19926;-77
2022/04/23 12:42:25;;;;;;;;;;;16.70;99.90;;;;;;4858809;29;20716;-76
2022/04/23 12:44:53;;;;;;;;;;;16.70;99.90;;;;;;4858662;29;19916;-76
2022/04/23 12:47:35;;;;;;;;;;;16.70;99.90;;;;;;4858479;29;20292;-76
2022/04/23 12:50:03;;;;;;;;;;;16.70;99.90;;;;;;4867187;29;19971;-75
2022/04/23 12:52:34;;;;;;;;;;;16.70;99.90;;;;;;4860994;29;19919;-76
2022/04/23 12:55:10;;;;;;;;;;;16.70;99.90;;;;;;4877679;29;19959;-76
2022/04/23 12:57:36;;;;;;;;;;;16.60;99.90;;;;;;4877436;29;19912;-77
2022/04/23 13:00:03;;;;;;;;;;;16.60;99.90;;;;;;4877532;29;19920;-77
2022/04/23 13:02:35;;;;;;;;;;;16.60;99.90;;;;;;4877000;29;19916;-75
2022/04/23 13:05:03;;;;;;;;;;;16.60;99.90;;;;;;4877501;29;19959;-76
2022/04/23 13:10:14;;;;;;;;;;;16.70;99.90;;;;;;4877556;29;19926;-77
2022/04/23 13:12:41;;;;;;;;;;;16.80;99.90;;;;;;4877533;29;19912;-76
2022/04/23 13:15:08;;;;;;;;;;;16.70;99.90;;;;;;4877020;29;19916;-76
2022/04/23 13:17:38;;;;;;;;;;;16.50;99.90;;;;;;4877337;29;19962;-75
2022/04/23 13:20:08;;;;;;;;;;;16.40;99.90;;;;;;4877254;29;19916;-76
2022/04/23 13:22:35;;;;;;;;;;;16.30;99.90;;;;;;4877388;29;19912;-75
2022/04/23 13:25:03;;;;;;;;;;;16.20;99.90;;;;;;4877520;29;19977;-76
2022/04/23 13:27:29;;;;;;;;;;;16.20;99.90;;;;;;4877207;29;19991;-76
2022/04/23 13:29:59;;;;;;;;;;;16.20;99.90;;;;;;4876952;29;19949;-76
2022/04/23 13:32:31;;;;;;;;;;;16.30;99.90;;;;;;4877482;29;20443;-75
2022/04/23 13:34:58;;;;;;;;;;;16.40;99.90;;;;;;4877194;29;19935;-78
2022/04/23 13:37:24;;;;;;;;;;;16.50;99.90;;;;;;4877264;29;20320;-75
2022/04/23 13:39:51;;;;;;;;;;;16.60;99.90;;;;;;4877151;29;19919;-75
2022/04/23 13:42:18;;;;;;;;;;;16.60;99.90;;;;;;4880395;29;19916;-76
2022/04/23 13:44:45;;;;;;;;;;;16.70;99.90;;;;;;4881045;29;19943;-77
2022/04/23 13:47:12;;;;;;;;;;;16.70;99.90;;;;;;4880946;29;19968;-76
2022/04/23 13:49:39;;;;;;;;;;;16.70;99.90;;;;;;4880710;29;19976;-77
2022/04/23 13:52:06;;;;;;;;;;;16.70;99.90;;;;;;4880912;29;19912;-76
2022/04/23 13:54:33;;;;;;;;;;;16.60;99.90;;;;;;4863582;29;19971;-75
2022/04/23 13:57:03;;;;;;;;;;;16.60;99.90;;;;;;4880685;29;19916;-76
2022/04/23 13:59:30;;;;;;;;;;;16.50;99.90;;;;;;4880819;29;19940;-76
2022/04/23 14:10:11;;;;;;;;;;;16.40;99.90;;;;;;4880557;29;19930;-75
2022/04/23 14:12:38;;;;;;;;;;;16.40;99.90;;;;;;4880219;29;20261;-75
2022/04/23 14:15:05;;;;;;;;;;;16.30;99.90;;;;;;4880438;29;20278;-75
2022/04/23 14:17:32;;;;;;;;;;;16.30;99.90;;;;;;4880189;29;19943;-76
2022/04/23 14:19:58;;;;;;;;;;;16.30;99.90;;;;;;4880442;29;19915;-76
2022/04/23 14:22:25;;;;;;;;;;;16.20;99.90;;;;;;4879825;29;19920;-75
2022/04/23 14:24:52;;;;;;;;;;;16.20;99.90;;;;;;4863289;29;19916;-78
2022/04/23 14:27:19;;;;;;;;;;;16.10;99.90;;;;;;4879908;29;19912;-75
2022/04/23 14:29:45;;;;;;;;;;;16.10;99.90;;;;;;4879914;29;19962;-75
2022/04/23 14:32:12;;;;;;;;;;;16.00;99.90;;;;;;4879981;29;19972;-76
2022/04/23 14:34:39;;;;;;;;;;;15.90;99.90;;;;;;4879761;29;19916;-77
2022/04/23 14:37:05;;;;;;;;;;;15.90;99.90;;;;;;4879924;29;20405;-75
2022/04/23 14:39:32;;;;;;;;;;;15.90;99.90;;;;;;4879822;29;19959;-75
2022/04/23 14:41:59;;;;;;;;;;;15.90;99.90;;;;;;4880730;29;19955;-75
2022/04/23 14:44:26;;;;;;;;;;;15.90;99.90;;;;;;4881752;29;20002;-75
2022/04/23 14:46:56;;;;;;;;;;;15.90;99.90;;;;;;4881927;29;19916;-76
2022/04/23 14:49:22;;;;;;;;;;;16.00;99.90;;;;;;4881826;29;19967;-76
2022/04/23 14:54:33;;;;;;;;;;;15.80;99.90;;;;;;4882122;29;19919;-76
2022/04/23 14:57:00;;;;;;;;;;;15.80;99.90;;;;;;4881628;29;20431;-76
2022/04/23 14:59:28;;;;;;;;;;;15.70;99.90;;;;;;4881660;29;19912;-75
2022/04/23 15:01:55;;;;;;;;;;;15.70;99.90;;;;;;4881387;29;20271;-75
2022/04/23 15:04:22;;;;;;;;;;;15.70;99.90;;;;;;4881268;29;20265;-75
2022/04/23 15:06:51;;;;;;;;;;;15.80;99.90;;;;;;4881402;29;19912;-75
2022/04/23 15:09:18;;;;;;;;;;;15.80;99.90;;;;;;4881411;29;19919;-75
2022/04/23 15:11:46;;;;;;;;;;;15.80;99.90;;;;;;4881106;29;20003;-78
2022/04/23 15:14:13;;;;;;;;;;;15.80;99.90;;;;;;4881445;29;19922;-77
2022/04/23 15:16:40;;;;;;;;;;;15.80;99.90;;;;;;4881455;29;19912;-76
2022/04/23 15:19:06;;;;;;;;;;;15.80;99.90;;;;;;4881527;29;19916;-75